sensor_id;sensor_type;location;lat;lon;timestamp;P1;durP1;ratioP1;P2;durP2;ratioP2
9809;SDS011;4944;52.514;13.192;2023-11-18T00:02:12;4.83;;;4.43;;
9809;SDS011;4944;52.514;13.192;2023-11-18T00:04:39;5.37;;;4.97;;
9809;SDS011;4944;52.514;13.192;2023-11-18T00:07:06;5.23;;;4.67;;
9809;SDS011;4944;52.514;13.192;2023-11-18T00:09:33;5.47;;;4.83;;
9809;SDS011;4944;52.514;13.192;2023-11-18T00:12:00;5.77;;;5.27;;
9809;SDS011;4944;52.514;13.192;2023-11-18T00:14:30;5.40;;;5.00;;
9809;SDS011;4944;52.514;13.192;2023-11-18T00:16:57;7.10;;;4.37;;
9809;SDS011;4944;52.514;13.192;2023-11-18T00:19:25;5.13;;;4.63;;
9809;SDS011;4944;52.514;13.192;2023-11-18T00:21:52;4.63;;;4.23;;
9809;SDS011;4944;52.514;13.192;2023-11-18T00:24:18;5.43;;;4.90;;
9809;SDS011;4944;52.514;13.192;2023-11-18T00:26:46;5.10;;;4.77;;
9809;SDS011;4944;52.514;13.192;2023-11-18T00:29:13;5.10;;;4.70;;
9809;SDS011;4944;52.514;13.192;2023-11-18T00:31:41;5.10;;;4.70;;
9809;SDS011;4944;52.514;13.192;2023-11-18T00:34:08;5.27;;;4.87;;
9809;SDS011;4944;52.514;13.192;2023-11-18T00:36:36;5.27;;;4.87;;
9809;SDS011;4944;52.514;13.192;2023-11-18T00:39:03;5.60;;;5.10;;
9809;SDS011;4944;52.514;13.192;2023-11-18T00:41:30;5.33;;;4.83;;
9809;SDS011;4944;52.514;13.192;2023-11-18T00:43:57;4.90;;;4.50;;
9809;SDS011;4944;52.514;13.192;2023-11-18T00:46:24;5.27;;;4.77;;
9809;SDS011;4944;52.514;13.192;2023-11-18T00:48:52;5.17;;;4.67;;
9809;SDS011;4944;52.514;13.192;2023-11-18T00:51:19;5.90;;;5.40;;
9809;SDS011;4944;52.514;13.192;2023-11-18T00:53:46;5.53;;;5.03;;
9809;SDS011;4944;52.514;13.192;2023-11-18T00:56:13;5.07;;;4.67;;
9809;SDS011;4944;52.514;13.192;2023-11-18T00:58:43;4.87;;;4.30;;
9809;SDS011;4944;52.514;13.192;2023-11-18T01:01:10;5.90;;;4.63;;
9809;SDS011;4944;52.514;13.192;2023-11-18T01:03:36;4.90;;;4.50;;
9809;SDS011;4944;52.514;13.192;2023-11-18T01:06:05;5.17;;;4.67;;
9809;SDS011;4944;52.514;13.192;2023-11-18T01:08:32;4.87;;;4.47;;
9809;SDS011;4944;52.514;13.192;2023-11-18T01:10:59;4.53;;;4.23;;
9809;SDS011;4944;52.514;13.192;2023-11-18T01:13:26;4.90;;;4.43;;
9809;SDS011;4944;52.514;13.192;2023-11-18T01:15:53;5.07;;;4.67;;
9809;SDS011;4944;52.514;13.192;2023-11-18T01:18:20;4.73;;;4.43;;
9809;SDS011;4944;52.514;13.192;2023-11-18T01:20:47;5.00;;;4.60;;
9809;SDS011;4944;52.514;13.192;2023-11-18T01:23:15;4.67;;;4.27;;
9809;SDS011;4944;52.514;13.192;2023-11-18T01:25:42;5.13;;;4.67;;
9809;SDS011;4944;52.514;13.192;2023-11-18T01:28:09;5.47;;;5.07;;
9809;SDS011;4944;52.514;13.192;2023-11-18T01:30:36;5.43;;;5.03;;
9809;SDS011;4944;52.514;13.192;2023-11-18T01:33:03;5.13;;;4.73;;
9809;SDS011;4944;52.514;13.192;2023-11-18T01:35:30;5.07;;;4.70;;
9809;SDS011;4944;52.514;13.192;2023-11-18T01:37:57;5.90;;;5.30;;
9809;SDS011;4944;52.514;13.192;2023-11-18T01:40:25;5.73;;;5.17;;
9809;SDS011;4944;52.514;13.192;2023-11-18T01:42:55;6.77;;;5.70;;
9809;SDS011;4944;52.514;13.192;2023-11-18T01:45:22;5.93;;;5.43;;
9809;SDS011;4944;52.514;13.192;2023-11-18T01:47:52;5.53;;;5.13;;
9809;SDS011;4944;52.514;13.192;2023-11-18T01:50:19;6.07;;;5.43;;
9809;SDS011;4944;52.514;13.192;2023-11-18T01:52:46;6.30;;;5.70;;
9809;SDS011;4944;52.514;13.192;2023-11-18T01:55:14;6.17;;;5.57;;
9809;SDS011;4944;52.514;13.192;2023-11-18T01:57:43;6.00;;;5.53;;
9809;SDS011;4944;52.514;13.192;2023-11-18T02:00:11;6.10;;;5.50;;
9809;SDS011;4944;52.514;13.192;2023-11-18T02:02:38;6.70;;;5.60;;
9809;SDS011;4944;52.514;13.192;2023-11-18T02:05:05;5.70;;;5.27;;
9809;SDS011;4944;52.514;13.192;2023-11-18T02:07:32;6.17;;;5.57;;
9809;SDS011;4944;52.514;13.192;2023-11-18T02:10:01;5.67;;;5.17;;
9809;SDS011;4944;52.514;13.192;2023-11-18T02:12:33;6.37;;;5.77;;
9809;SDS011;4944;52.514;13.192;2023-11-18T02:15:09;5.90;;;5.40;;
9809;SDS011;4944;52.514;13.192;2023-11-18T02:17:38;6.03;;;5.53;;
9809;SDS011;4944;52.514;13.192;2023-11-18T02:20:07;5.50;;;5.00;;
9809;SDS011;4944;52.514;13.192;2023-11-18T02:22:40;6.47;;;5.63;;
9809;SDS011;4944;52.514;13.192;2023-11-18T02:25:09;7.07;;;5.37;;
9809;SDS011;4944;52.514;13.192;2023-11-18T02:27:37;6.03;;;5.57;;
9809;SDS011;4944;52.514;13.192;2023-11-18T02:30:05;5.63;;;5.13;;
9809;SDS011;4944;52.514;13.192;2023-11-18T02:32:39;6.20;;;5.73;;
9809;SDS011;4944;52.514;13.192;2023-11-18T02:35:13;6.43;;;5.83;;
9809;SDS011;4944;52.514;13.192;2023-11-18T02:37:45;6.10;;;5.60;;
9809;SDS011;4944;52.514;13.192;2023-11-18T02:40:17;6.00;;;5.40;;
9809;SDS011;4944;52.514;13.192;2023-11-18T02:42:48;6.17;;;5.67;;
9809;SDS011;4944;52.514;13.192;2023-11-18T02:45:18;6.03;;;5.50;;
9809;SDS011;4944;52.514;13.192;2023-11-18T02:47:47;6.63;;;6.03;;
9809;SDS011;4944;52.514;13.192;2023-11-18T02:50:14;6.60;;;5.83;;
9809;SDS011;4944;52.514;13.192;2023-11-18T02:52:44;5.93;;;5.50;;
9809;SDS011;4944;52.514;13.192;2023-11-18T02:55:11;6.03;;;5.43;;
9809;SDS011;4944;52.514;13.192;2023-11-18T02:57:38;6.93;;;5.63;;
9809;SDS011;4944;52.514;13.192;2023-11-18T03:00:07;8.13;;;6.43;;
9809;SDS011;4944;52.514;13.192;2023-11-18T03:02:47;5.80;;;5.30;;
9809;SDS011;4944;52.514;13.192;2023-11-18T03:05:16;5.87;;;5.47;;
9809;SDS011;4944;52.514;13.192;2023-11-18T03:07:44;5.97;;;5.37;;
9809;SDS011;4944;52.514;13.192;2023-11-18T03:10:14;5.63;;;5.13;;
9809;SDS011;4944;52.514;13.192;2023-11-18T03:12:46;5.60;;;5.20;;
9809;SDS011;4944;52.514;13.192;2023-11-18T03:15:14;5.97;;;5.47;;
9809;SDS011;4944;52.514;13.192;2023-11-18T03:17:43;5.30;;;4.90;;
9809;SDS011;4944;52.514;13.192;2023-11-18T03:20:11;5.77;;;5.23;;
9809;SDS011;4944;52.514;13.192;2023-11-18T03:22:41;6.53;;;5.93;;
9809;SDS011;4944;52.514;13.192;2023-11-18T03:25:09;6.23;;;5.47;;
9809;SDS011;4944;52.514;13.192;2023-11-18T03:27:37;6.10;;;5.60;;
9809;SDS011;4944;52.514;13.192;2023-11-18T03:30:04;6.13;;;5.53;;
9809;SDS011;4944;52.514;13.192;2023-11-18T03:32:34;9.77;;;5.70;;
9809;SDS011;4944;52.514;13.192;2023-11-18T03:35:01;7.17;;;6.03;;
9809;SDS011;4944;52.514;13.192;2023-11-18T03:37:29;6.33;;;5.73;;
9809;SDS011;4944;52.514;13.192;2023-11-18T03:39:56;6.93;;;6.33;;
9809;SDS011;4944;52.514;13.192;2023-11-18T03:42:23;7.97;;;5.70;;
9809;SDS011;4944;52.514;13.192;2023-11-18T03:44:50;6.83;;;6.13;;
9809;SDS011;4944;52.514;13.192;2023-11-18T03:47:17;6.27;;;5.67;;
9809;SDS011;4944;52.514;13.192;2023-11-18T03:49:45;7.43;;;6.67;;
9809;SDS011;4944;52.514;13.192;2023-11-18T03:52:12;7.40;;;6.67;;
9809;SDS011;4944;52.514;13.192;2023-11-18T03:54:39;7.80;;;6.67;;
9809;SDS011;4944;52.514;13.192;2023-11-18T03:57:06;7.17;;;6.50;;
9809;SDS011;4944;52.514;13.192;2023-11-18T03:59:33;7.47;;;6.67;;
9809;SDS011;4944;52.514;13.192;2023-11-18T04:02:00;7.87;;;7.00;;
9809;SDS011;4944;52.514;13.192;2023-11-18T04:04:27;7.20;;;6.60;;
9809;SDS011;4944;52.514;13.192;2023-11-18T04:06:56;7.97;;;7.13;;
9809;SDS011;4944;52.514;13.192;2023-11-18T04:09:26;7.60;;;6.80;;
9809;SDS011;4944;52.514;13.192;2023-11-18T04:11:52;7.43;;;6.73;;
9809;SDS011;4944;52.514;13.192;2023-11-18T04:14:19;7.40;;;6.70;;
9809;SDS011;4944;52.514;13.192;2023-11-18T04:16:46;7.43;;;6.63;;
9809;SDS011;4944;52.514;13.192;2023-11-18T04:19:13;7.57;;;6.77;;
9809;SDS011;4944;52.514;13.192;2023-11-18T04:21:40;7.53;;;6.83;;
9809;SDS011;4944;52.514;13.192;2023-11-18T04:24:10;8.27;;;6.50;;
9809;SDS011;4944;52.514;13.192;2023-11-18T04:26:36;7.23;;;6.60;;
9809;SDS011;4944;52.514;13.192;2023-11-18T04:29:03;7.23;;;6.53;;
9809;SDS011;4944;52.514;13.192;2023-11-18T04:31:30;7.20;;;6.50;;
9809;SDS011;4944;52.514;13.192;2023-11-18T04:33:59;7.33;;;6.60;;
9809;SDS011;4944;52.514;13.192;2023-11-18T04:36:26;7.33;;;6.63;;
9809;SDS011;4944;52.514;13.192;2023-11-18T04:38:54;8.00;;;7.10;;
9809;SDS011;4944;52.514;13.192;2023-11-18T04:41:22;6.60;;;6.03;;
9809;SDS011;4944;52.514;13.192;2023-11-18T04:43:49;6.93;;;6.23;;
9809;SDS011;4944;52.514;13.192;2023-11-18T04:46:16;7.00;;;6.30;;
9809;SDS011;4944;52.514;13.192;2023-11-18T04:48:47;6.53;;;5.93;;
9809;SDS011;4944;52.514;13.192;2023-11-18T04:51:13;6.87;;;6.20;;
9809;SDS011;4944;52.514;13.192;2023-11-18T04:53:42;6.97;;;6.37;;
9809;SDS011;4944;52.514;13.192;2023-11-18T04:56:09;6.73;;;6.00;;
9809;SDS011;4944;52.514;13.192;2023-11-18T04:58:37;7.00;;;6.30;;
9809;SDS011;4944;52.514;13.192;2023-11-18T05:01:05;7.03;;;5.97;;
9809;SDS011;4944;52.514;13.192;2023-11-18T05:03:32;6.70;;;5.97;;
9809;SDS011;4944;52.514;13.192;2023-11-18T05:05:59;8.13;;;6.20;;
9809;SDS011;4944;52.514;13.192;2023-11-18T05:08:25;6.80;;;6.07;;
9809;SDS011;4944;52.514;13.192;2023-11-18T05:10:52;7.10;;;5.93;;
9809;SDS011;4944;52.514;13.192;2023-11-18T05:13:20;6.80;;;6.20;;
9809;SDS011;4944;52.514;13.192;2023-11-18T05:15:48;6.73;;;6.10;;
9809;SDS011;4944;52.514;13.192;2023-11-18T05:18:19;6.37;;;5.77;;
9809;SDS011;4944;52.514;13.192;2023-11-18T05:20:46;6.90;;;6.30;;
9809;SDS011;4944;52.514;13.192;2023-11-18T05:23:13;6.23;;;5.63;;
9809;SDS011;4944;52.514;13.192;2023-11-18T05:25:40;6.23;;;5.67;;
9809;SDS011;4944;52.514;13.192;2023-11-18T05:28:08;6.50;;;5.90;;
9809;SDS011;4944;52.514;13.192;2023-11-18T05:30:35;6.60;;;5.87;;
9809;SDS011;4944;52.514;13.192;2023-11-18T05:33:03;6.80;;;5.87;;
9809;SDS011;4944;52.514;13.192;2023-11-18T05:35:31;5.87;;;5.40;;
9809;SDS011;4944;52.514;13.192;2023-11-18T05:37:58;6.47;;;5.63;;
9809;SDS011;4944;52.514;13.192;2023-11-18T05:40:25;6.80;;;6.10;;
9809;SDS011;4944;52.514;13.192;2023-11-18T05:42:54;6.73;;;6.13;;
9809;SDS011;4944;52.514;13.192;2023-11-18T05:45:21;6.50;;;5.90;;
9809;SDS011;4944;52.514;13.192;2023-11-18T05:47:56;7.00;;;6.30;;
9809;SDS011;4944;52.514;13.192;2023-11-18T05:50:25;6.80;;;6.20;;
9809;SDS011;4944;52.514;13.192;2023-11-18T05:52:52;7.93;;;7.17;;
9809;SDS011;4944;52.514;13.192;2023-11-18T05:55:19;8.07;;;6.57;;
9809;SDS011;4944;52.514;13.192;2023-11-18T05:57:46;7.23;;;6.40;;
9809;SDS011;4944;52.514;13.192;2023-11-18T06:00:14;7.20;;;6.50;;
9809;SDS011;4944;52.514;13.192;2023-11-18T06:02:44;6.87;;;6.27;;
9809;SDS011;4944;52.514;13.192;2023-11-18T06:05:11;8.93;;;6.70;;
9809;SDS011;4944;52.514;13.192;2023-11-18T06:07:40;7.43;;;6.17;;
9809;SDS011;4944;52.514;13.192;2023-11-18T06:10:08;7.47;;;6.60;;
9809;SDS011;4944;52.514;13.192;2023-11-18T06:12:37;6.90;;;5.73;;
9809;SDS011;4944;52.514;13.192;2023-11-18T06:15:06;6.27;;;5.67;;
9809;SDS011;4944;52.514;13.192;2023-11-18T06:17:39;6.67;;;6.03;;
9809;SDS011;4944;52.514;13.192;2023-11-18T06:20:07;7.20;;;6.57;;
9809;SDS011;4944;52.514;13.192;2023-11-18T06:22:35;7.17;;;6.47;;
9809;SDS011;4944;52.514;13.192;2023-11-18T06:25:04;6.87;;;6.27;;
9809;SDS011;4944;52.514;13.192;2023-11-18T06:27:33;7.60;;;6.77;;
9809;SDS011;4944;52.514;13.192;2023-11-18T06:30:00;6.90;;;6.13;;
9809;SDS011;4944;52.514;13.192;2023-11-18T06:32:27;7.37;;;6.67;;
9809;SDS011;4944;52.514;13.192;2023-11-18T06:34:56;7.30;;;6.60;;
9809;SDS011;4944;52.514;13.192;2023-11-18T06:37:23;9.70;;;6.60;;
9809;SDS011;4944;52.514;13.192;2023-11-18T06:39:50;7.47;;;6.63;;
9809;SDS011;4944;52.514;13.192;2023-11-18T06:42:19;7.07;;;6.47;;
9809;SDS011;4944;52.514;13.192;2023-11-18T06:44:48;7.80;;;7.00;;
9809;SDS011;4944;52.514;13.192;2023-11-18T06:47:15;6.73;;;6.13;;
9809;SDS011;4944;52.514;13.192;2023-11-18T06:49:44;7.30;;;6.50;;
9809;SDS011;4944;52.514;13.192;2023-11-18T06:52:12;8.57;;;6.50;;
9809;SDS011;4944;52.514;13.192;2023-11-18T06:54:40;7.00;;;6.40;;
9809;SDS011;4944;52.514;13.192;2023-11-18T06:57:07;7.70;;;6.27;;
9809;SDS011;4944;52.514;13.192;2023-11-18T06:59:35;6.47;;;5.73;;
9809;SDS011;4944;52.514;13.192;2023-11-18T07:02:02;7.27;;;6.30;;
9809;SDS011;4944;52.514;13.192;2023-11-18T07:04:31;7.27;;;6.57;;
9809;SDS011;4944;52.514;13.192;2023-11-18T07:06:57;8.30;;;6.60;;
9809;SDS011;4944;52.514;13.192;2023-11-18T07:09:24;6.70;;;6.10;;
9809;SDS011;4944;52.514;13.192;2023-11-18T07:11:51;7.40;;;6.60;;
9809;SDS011;4944;52.514;13.192;2023-11-18T07:14:21;6.80;;;6.20;;
9809;SDS011;4944;52.514;13.192;2023-11-18T07:16:49;6.97;;;6.27;;
9809;SDS011;4944;52.514;13.192;2023-11-18T07:19:16;6.77;;;6.20;;
9809;SDS011;4944;52.514;13.192;2023-11-18T07:21:45;7.13;;;6.43;;
9809;SDS011;4944;52.514;13.192;2023-11-18T07:24:12;6.93;;;6.33;;
9809;SDS011;4944;52.514;13.192;2023-11-18T07:26:38;6.80;;;6.10;;
9809;SDS011;4944;52.514;13.192;2023-11-18T07:29:05;6.90;;;6.30;;
9809;SDS011;4944;52.514;13.192;2023-11-18T07:31:33;6.73;;;6.17;;
9809;SDS011;4944;52.514;13.192;2023-11-18T07:34:02;9.87;;;6.87;;
9809;SDS011;4944;52.514;13.192;2023-11-18T07:36:30;7.30;;;6.60;;
9809;SDS011;4944;52.514;13.192;2023-11-18T07:38:57;7.10;;;6.40;;
9809;SDS011;4944;52.514;13.192;2023-11-18T07:41:26;7.63;;;6.47;;
9809;SDS011;4944;52.514;13.192;2023-11-18T07:43:53;7.23;;;6.63;;
9809;SDS011;4944;52.514;13.192;2023-11-18T07:46:20;8.07;;;6.90;;
9809;SDS011;4944;52.514;13.192;2023-11-18T07:48:48;7.77;;;7.07;;
9809;SDS011;4944;52.514;13.192;2023-11-18T07:51:18;9.20;;;6.47;;
9809;SDS011;4944;52.514;13.192;2023-11-18T07:53:46;7.57;;;6.93;;
9809;SDS011;4944;52.514;13.192;2023-11-18T07:56:13;9.27;;;7.80;;
9809;SDS011;4944;52.514;13.192;2023-11-18T07:58:41;8.27;;;6.80;;
9809;SDS011;4944;52.514;13.192;2023-11-18T08:01:10;8.80;;;7.90;;
9809;SDS011;4944;52.514;13.192;2023-11-18T08:03:37;8.53;;;7.03;;
9809;SDS011;4944;52.514;13.192;2023-11-18T08:06:06;8.43;;;6.97;;
9809;SDS011;4944;52.514;13.192;2023-11-18T08:08:35;8.23;;;6.47;;
9809;SDS011;4944;52.514;13.192;2023-11-18T08:11:03;10.00;;;7.30;;
9809;SDS011;4944;52.514;13.192;2023-11-18T08:13:30;7.40;;;6.73;;
9809;SDS011;4944;52.514;13.192;2023-11-18T08:15:57;8.93;;;7.17;;
9809;SDS011;4944;52.514;13.192;2023-11-18T08:18:24;7.80;;;6.77;;
9809;SDS011;4944;52.514;13.192;2023-11-18T08:20:52;9.17;;;7.03;;
9809;SDS011;4944;52.514;13.192;2023-11-18T08:23:20;8.07;;;7.27;;
9809;SDS011;4944;52.514;13.192;2023-11-18T08:25:48;9.73;;;7.47;;
9809;SDS011;4944;52.514;13.192;2023-11-18T08:28:15;8.43;;;6.83;;
9809;SDS011;4944;52.514;13.192;2023-11-18T08:30:42;9.03;;;7.17;;
9809;SDS011;4944;52.514;13.192;2023-11-18T08:33:09;9.13;;;6.90;;
9809;SDS011;4944;52.514;13.192;2023-11-18T08:35:36;7.23;;;6.47;;
9809;SDS011;4944;52.514;13.192;2023-11-18T08:38:03;10.00;;;6.90;;
9809;SDS011;4944;52.514;13.192;2023-11-18T08:40:34;9.17;;;7.50;;
9809;SDS011;4944;52.514;13.192;2023-11-18T08:43:03;9.50;;;8.10;;
9809;SDS011;4944;52.514;13.192;2023-11-18T08:45:32;8.17;;;7.37;;
9809;SDS011;4944;52.514;13.192;2023-11-18T08:48:00;9.77;;;7.60;;
9809;SDS011;4944;52.514;13.192;2023-11-18T08:50:32;8.60;;;7.70;;
9809;SDS011;4944;52.514;13.192;2023-11-18T08:52:59;9.63;;;7.80;;
9809;SDS011;4944;52.514;13.192;2023-11-18T08:55:29;8.53;;;7.50;;
9809;SDS011;4944;52.514;13.192;2023-11-18T08:58:08;10.63;;;7.43;;
9809;SDS011;4944;52.514;13.192;2023-11-18T09:00:44;10.90;;;7.40;;
9809;SDS011;4944;52.514;13.192;2023-11-18T09:03:18;9.30;;;7.43;;
9809;SDS011;4944;52.514;13.192;2023-11-18T09:05:52;8.50;;;7.60;;
9809;SDS011;4944;52.514;13.192;2023-11-18T09:08:24;8.83;;;7.53;;
9809;SDS011;4944;52.514;13.192;2023-11-18T09:10:52;8.40;;;7.50;;
9809;SDS011;4944;52.514;13.192;2023-11-18T09:13:21;9.30;;;7.27;;
9809;SDS011;4944;52.514;13.192;2023-11-18T09:15:50;8.80;;;7.07;;
9809;SDS011;4944;52.514;13.192;2023-11-18T09:18:17;7.87;;;7.07;;
9809;SDS011;4944;52.514;13.192;2023-11-18T09:20:46;7.83;;;6.40;;
9809;SDS011;4944;52.514;13.192;2023-11-18T09:23:13;8.93;;;7.60;;
9809;SDS011;4944;52.514;13.192;2023-11-18T09:25:41;8.17;;;7.10;;
9809;SDS011;4944;52.514;13.192;2023-11-18T09:28:12;8.20;;;7.40;;
9809;SDS011;4944;52.514;13.192;2023-11-18T09:30:41;7.30;;;6.60;;
9809;SDS011;4944;52.514;13.192;2023-11-18T09:33:18;6.47;;;5.87;;
9809;SDS011;4944;52.514;13.192;2023-11-18T09:35:54;9.40;;;6.53;;
9809;SDS011;4944;52.514;13.192;2023-11-18T09:38:24;8.40;;;7.33;;
9809;SDS011;4944;52.514;13.192;2023-11-18T09:40:54;7.97;;;6.80;;
9809;SDS011;4944;52.514;13.192;2023-11-18T09:43:23;6.53;;;5.93;;
9809;SDS011;4944;52.514;13.192;2023-11-18T09:45:53;7.60;;;6.37;;
9809;SDS011;4944;52.514;13.192;2023-11-18T09:48:21;9.07;;;7.17;;
9809;SDS011;4944;52.514;13.192;2023-11-18T09:50:51;7.57;;;6.57;;
9809;SDS011;4944;52.514;13.192;2023-11-18T09:53:19;10.50;;;6.67;;
9809;SDS011;4944;52.514;13.192;2023-11-18T09:55:52;7.90;;;6.33;;
9809;SDS011;4944;52.514;13.192;2023-11-18T09:58:28;7.13;;;6.40;;
9809;SDS011;4944;52.514;13.192;2023-11-18T10:01:15;7.87;;;7.07;;
9809;SDS011;4944;52.514;13.192;2023-11-18T10:03:46;6.57;;;5.97;;
9809;SDS011;4944;52.514;13.192;2023-11-18T10:06:14;6.97;;;6.30;;
9809;SDS011;4944;52.514;13.192;2023-11-18T10:08:41;8.37;;;7.30;;
9809;SDS011;4944;52.514;13.192;2023-11-18T10:11:11;7.10;;;6.40;;
9809;SDS011;4944;52.514;13.192;2023-11-18T10:13:38;7.90;;;6.90;;
9809;SDS011;4944;52.514;13.192;2023-11-18T10:16:09;7.50;;;6.70;;
9809;SDS011;4944;52.514;13.192;2023-11-18T10:18:38;6.63;;;6.03;;
9809;SDS011;4944;52.514;13.192;2023-11-18T10:21:14;6.70;;;6.10;;
9809;SDS011;4944;52.514;13.192;2023-11-18T10:23:47;6.93;;;6.17;;
9809;SDS011;4944;52.514;13.192;2023-11-18T10:26:26;6.50;;;5.90;;
9809;SDS011;4944;52.514;13.192;2023-11-18T10:28:53;5.87;;;5.37;;
9809;SDS011;4944;52.514;13.192;2023-11-18T10:31:20;6.27;;;5.73;;
9809;SDS011;4944;52.514;13.192;2023-11-18T10:33:50;7.03;;;6.03;;
9809;SDS011;4944;52.514;13.192;2023-11-18T10:36:18;5.40;;;5.00;;
9809;SDS011;4944;52.514;13.192;2023-11-18T10:38:49;5.77;;;5.23;;
9809;SDS011;4944;52.514;13.192;2023-11-18T10:41:17;5.47;;;4.97;;
9809;SDS011;4944;52.514;13.192;2023-11-18T10:43:45;5.73;;;5.23;;
9809;SDS011;4944;52.514;13.192;2023-11-18T10:46:13;5.87;;;4.83;;
9809;SDS011;4944;52.514;13.192;2023-11-18T10:48:41;5.17;;;4.77;;
9809;SDS011;4944;52.514;13.192;2023-11-18T10:51:10;6.10;;;5.20;;
9809;SDS011;4944;52.514;13.192;2023-11-18T10:53:38;5.80;;;4.90;;
9809;SDS011;4944;52.514;13.192;2023-11-18T10:56:16;5.37;;;4.77;;
9809;SDS011;4944;52.514;13.192;2023-11-18T10:58:49;5.70;;;4.90;;
9809;SDS011;4944;52.514;13.192;2023-11-18T11:01:19;6.93;;;5.17;;
9809;SDS011;4944;52.514;13.192;2023-11-18T11:03:53;6.77;;;6.13;;
9809;SDS011;4944;52.514;13.192;2023-11-18T11:06:23;7.30;;;6.53;;
9809;SDS011;4944;52.514;13.192;2023-11-18T11:08:51;7.83;;;7.03;;
9809;SDS011;4944;52.514;13.192;2023-11-18T11:11:20;11.47;;;7.60;;
9809;SDS011;4944;52.514;13.192;2023-11-18T11:13:49;10.93;;;7.53;;
9809;SDS011;4944;52.514;13.192;2023-11-18T11:16:20;10.17;;;7.37;;
9809;SDS011;4944;52.514;13.192;2023-11-18T11:18:55;8.50;;;7.60;;
9809;SDS011;4944;52.514;13.192;2023-11-18T11:21:26;8.43;;;7.17;;
9809;SDS011;4944;52.514;13.192;2023-11-18T11:23:55;7.93;;;7.10;;
9809;SDS011;4944;52.514;13.192;2023-11-18T11:26:34;7.83;;;6.90;;
9809;SDS011;4944;52.514;13.192;2023-11-18T11:29:13;10.00;;;7.03;;
9809;SDS011;4944;52.514;13.192;2023-11-18T11:31:50;9.60;;;6.93;;
9809;SDS011;4944;52.514;13.192;2023-11-18T11:34:29;7.73;;;6.93;;
9809;SDS011;4944;52.514;13.192;2023-11-18T11:36:59;7.33;;;6.53;;
9809;SDS011;4944;52.514;13.192;2023-11-18T11:39:26;7.90;;;7.07;;
9809;SDS011;4944;52.514;13.192;2023-11-18T11:41:55;8.57;;;6.40;;
9809;SDS011;4944;52.514;13.192;2023-11-18T11:44:24;6.90;;;6.30;;
9809;SDS011;4944;52.514;13.192;2023-11-18T11:46:54;6.70;;;6.10;;
9809;SDS011;4944;52.514;13.192;2023-11-18T11:49:25;6.50;;;5.73;;
9809;SDS011;4944;52.514;13.192;2023-11-18T11:51:56;6.13;;;5.53;;
9809;SDS011;4944;52.514;13.192;2023-11-18T11:54:31;8.50;;;7.63;;
9809;SDS011;4944;52.514;13.192;2023-11-18T11:57:03;5.97;;;5.37;;
9809;SDS011;4944;52.514;13.192;2023-11-18T12:02:23;6.00;;;5.40;;
9809;SDS011;4944;52.514;13.192;2023-11-18T12:04:54;6.00;;;5.50;;
9809;SDS011;4944;52.514;13.192;2023-11-18T12:07:26;5.53;;;5.00;;
9809;SDS011;4944;52.514;13.192;2023-11-18T12:09:56;6.60;;;5.23;;
9809;SDS011;4944;52.514;13.192;2023-11-18T12:12:25;5.07;;;4.67;;
9809;SDS011;4944;52.514;13.192;2023-11-18T12:14:52;5.70;;;5.20;;
9809;SDS011;4944;52.514;13.192;2023-11-18T12:17:22;5.43;;;4.93;;
9809;SDS011;4944;52.514;13.192;2023-11-18T12:19:53;4.93;;;4.53;;
9809;SDS011;4944;52.514;13.192;2023-11-18T12:22:24;4.67;;;4.27;;
9809;SDS011;4944;52.514;13.192;2023-11-18T12:28:11;5.67;;;5.17;;
9809;SDS011;4944;52.514;13.192;2023-11-18T12:30:42;4.73;;;4.33;;
9809;SDS011;4944;52.514;13.192;2023-11-18T12:33:18;5.00;;;4.50;;
9809;SDS011;4944;52.514;13.192;2023-11-18T12:39:06;4.70;;;4.30;;
9809;SDS011;4944;52.514;13.192;2023-11-18T12:42:03;4.77;;;4.37;;
9809;SDS011;4944;52.514;13.192;2023-11-18T12:44:35;4.23;;;3.87;;
9809;SDS011;4944;52.514;13.192;2023-11-18T12:47:04;4.50;;;4.20;;
9809;SDS011;4944;52.514;13.192;2023-11-18T12:49:39;4.07;;;3.77;;
9809;SDS011;4944;52.514;13.192;2023-11-18T12:52:07;4.23;;;3.93;;
9809;SDS011;4944;52.514;13.192;2023-11-18T12:54:36;4.37;;;3.97;;
9809;SDS011;4944;52.514;13.192;2023-11-18T12:57:08;4.30;;;3.90;;
9809;SDS011;4944;52.514;13.192;2023-11-18T12:59:39;3.90;;;3.40;;
9809;SDS011;4944;52.514;13.192;2023-11-18T13:02:06;4.17;;;3.87;;
9809;SDS011;4944;52.514;13.192;2023-11-18T13:04:38;4.53;;;3.87;;
9809;SDS011;4944;52.514;13.192;2023-11-18T13:07:06;4.10;;;3.80;;
9809;SDS011;4944;52.514;13.192;2023-11-18T13:09:37;3.90;;;3.60;;
9809;SDS011;4944;52.514;13.192;2023-11-18T13:12:06;3.93;;;3.67;;
9809;SDS011;4944;52.514;13.192;2023-11-18T13:14:34;4.97;;;4.00;;
9809;SDS011;4944;52.514;13.192;2023-11-18T13:17:02;4.47;;;4.10;;
9809;SDS011;4944;52.514;13.192;2023-11-18T13:19:31;4.33;;;3.67;;
9809;SDS011;4944;52.514;13.192;2023-11-18T13:21:59;5.33;;;3.97;;
9809;SDS011;4944;52.514;13.192;2023-11-18T13:24:29;4.20;;;3.80;;
9809;SDS011;4944;52.514;13.192;2023-11-18T13:26:58;3.83;;;3.53;;
9809;SDS011;4944;52.514;13.192;2023-11-18T13:29:28;3.87;;;3.50;;
9809;SDS011;4944;52.514;13.192;2023-11-18T13:31:56;4.30;;;4.00;;
9809;SDS011;4944;52.514;13.192;2023-11-18T13:34:25;5.43;;;4.00;;
9809;SDS011;4944;52.514;13.192;2023-11-18T13:36:55;4.47;;;4.07;;
9809;SDS011;4944;52.514;13.192;2023-11-18T13:39:22;3.97;;;3.60;;
9809;SDS011;4944;52.514;13.192;2023-11-18T13:41:52;3.73;;;3.43;;
9809;SDS011;4944;52.514;13.192;2023-11-18T13:44:33;3.87;;;3.63;;
9809;SDS011;4944;52.514;13.192;2023-11-18T13:47:04;4.20;;;3.80;;
9809;SDS011;4944;52.514;13.192;2023-11-18T13:49:31;3.63;;;3.33;;
9809;SDS011;4944;52.514;13.192;2023-11-18T13:51:59;4.03;;;3.60;;
9809;SDS011;4944;52.514;13.192;2023-11-18T13:54:27;4.10;;;3.80;;
9809;SDS011;4944;52.514;13.192;2023-11-18T13:56:54;4.00;;;3.60;;
9809;SDS011;4944;52.514;13.192;2023-11-18T13:59:23;4.23;;;3.93;;
9809;SDS011;4944;52.514;13.192;2023-11-18T14:01:53;4.47;;;4.10;;
9809;SDS011;4944;52.514;13.192;2023-11-18T14:04:22;4.53;;;4.13;;
9809;SDS011;4944;52.514;13.192;2023-11-18T14:06:50;4.17;;;3.77;;
9809;SDS011;4944;52.514;13.192;2023-11-18T14:09:18;4.83;;;4.33;;
9809;SDS011;4944;52.514;13.192;2023-11-18T14:11:47;4.67;;;4.27;;
9809;SDS011;4944;52.514;13.192;2023-11-18T14:14:14;5.40;;;4.80;;
9809;SDS011;4944;52.514;13.192;2023-11-18T14:16:42;4.80;;;4.40;;
9809;SDS011;4944;52.514;13.192;2023-11-18T14:19:11;4.67;;;4.30;;
9809;SDS011;4944;52.514;13.192;2023-11-18T14:21:38;6.20;;;4.90;;
9809;SDS011;4944;52.514;13.192;2023-11-18T14:24:06;5.30;;;4.80;;
9809;SDS011;4944;52.514;13.192;2023-11-18T14:26:35;5.00;;;4.60;;
9809;SDS011;4944;52.514;13.192;2023-11-18T14:29:02;5.17;;;4.77;;
9809;SDS011;4944;52.514;13.192;2023-11-18T14:31:29;6.67;;;5.40;;
9809;SDS011;4944;52.514;13.192;2023-11-18T14:33:56;5.77;;;4.90;;
9809;SDS011;4944;52.514;13.192;2023-11-18T14:36:25;5.47;;;4.97;;
9809;SDS011;4944;52.514;13.192;2023-11-18T14:38:52;5.47;;;4.97;;
9809;SDS011;4944;52.514;13.192;2023-11-18T14:41:19;7.17;;;5.00;;
9809;SDS011;4944;52.514;13.192;2023-11-18T14:43:49;6.33;;;5.67;;
9809;SDS011;4944;52.514;13.192;2023-11-18T14:46:16;6.23;;;5.53;;
9809;SDS011;4944;52.514;13.192;2023-11-18T14:48:44;5.43;;;5.03;;
9809;SDS011;4944;52.514;13.192;2023-11-18T14:51:11;6.33;;;5.67;;
9809;SDS011;4944;52.514;13.192;2023-11-18T14:53:39;6.07;;;5.23;;
9809;SDS011;4944;52.514;13.192;2023-11-18T14:56:08;5.60;;;5.10;;
9809;SDS011;4944;52.514;13.192;2023-11-18T14:58:35;7.23;;;5.80;;
9809;SDS011;4944;52.514;13.192;2023-11-18T15:01:02;6.07;;;5.43;;
9809;SDS011;4944;52.514;13.192;2023-11-18T15:03:32;5.90;;;5.40;;
9809;SDS011;4944;52.514;13.192;2023-11-18T15:05:59;6.60;;;5.57;;
9809;SDS011;4944;52.514;13.192;2023-11-18T15:08:26;6.70;;;6.10;;
9809;SDS011;4944;52.514;13.192;2023-11-18T15:10:54;5.90;;;5.40;;
9809;SDS011;4944;52.514;13.192;2023-11-18T15:13:23;6.07;;;5.47;;
9809;SDS011;4944;52.514;13.192;2023-11-18T15:15:50;6.03;;;5.50;;
9809;SDS011;4944;52.514;13.192;2023-11-18T15:18:17;6.20;;;5.60;;
9809;SDS011;4944;52.514;13.192;2023-11-18T15:20:45;5.93;;;5.33;;